Time,TemperatureF,DewpointF,PressureIn,WindDirection,WindDirectionDegrees,WindSpeedMPH,WindSpeedGustMPH,Humidity,HourlyPrecipIn,Conditions,Clouds,dailyrainin,SoftwareType,DateUTC
2013-09-29 00:06:00,49.6,48.2,30.19,SW,227,0.0,0.0,95,0.00,,,0.00,Wunderground v.1.15,2013-09-29 04:06:00,
2013-09-29 00:16:00,49.2,47.5,30.19,SW,227,0.0,0.0,94,0.00,,,0.00,Wunderground v.1.15,2013-09-29 04:16:00,
2013-09-29 00:26:00,49.4,48.0,30.19,SW,227,0.0,0.0,95,0.00,,,0.00,Wunderground v.1.15,2013-09-29 04:26:00,
2013-09-29 00:36:00,49.1,47.7,30.19,SW,227,0.0,0.0,95,0.00,,,0.00,Wunderground v.1.15,2013-09-29 04:36:00,
2013-09-29 00:46:00,49.4,48.3,30.19,SW,227,0.0,0.0,96,0.00,,,0.00,Wunderground v.1.15,2013-09-29 04:46:00,
2013-09-29 00:56:00,48.8,47.4,30.19,SW,227,0.0,0.0,95,0.00,,,0.00,Wunderground v.1.15,2013-09-29 04:56:00,
2013-09-29 01:05:00,48.5,47.4,30.18,SW,227,0.0,0.0,96,0.00,,,0.00,Wunderground v.1.15,2013-09-29 05:05:00,
2013-09-29 01:15:00,48.5,47.4,30.18,SW,227,0.0,0.0,96,0.00,,,0.00,Wunderground v.1.15,2013-09-29 05:15:00,
2013-09-29 01:46:00,47.9,46.8,30.18,SW,227,0.0,0.0,96,0.00,,,0.00,Wunderground v.1.15,2013-09-29 05:46:00,
2013-09-29 01:56:00,47.9,46.8,30.18,SW,227,1.0,1.0,96,0.00,,,0.00,Wunderground v.1.15,2013-09-29 05:56:00,
2013-09-29 02:06:00,47.9,46.8,30.17,SW,227,0.0,0.0,96,0.00,,,0.00,Wunderground v.1.15,2013-09-29 06:06:00,
2013-09-29 02:15:00,48.3,47.5,30.17,SW,227,0.0,0.0,97,0.00,,,0.00,Wunderground v.1.15,2013-09-29 06:15:00,
2013-09-29 02:36:00,47.7,46.9,30.17,SW,227,0.0,0.0,97,0.00,,,0.00,Wunderground v.1.15,2013-09-29 06:36:00,
2013-09-29 02:45:00,47.7,46.6,30.16,SW,227,0.0,0.0,96,0.00,,,0.00,Wunderground v.1.15,2013-09-29 06:45:00,
2013-09-29 02:55:00,47.6,46.8,30.16,SW,227,0.0,0.0,97,0.00,,,0.00,Wunderground v.1.15,2013-09-29 06:55:00,
2013-09-29 03:06:00,47.6,46.8,30.16,SW,227,0.0,0.0,97,0.00,,,0.00,Wunderground v.1.15,2013-09-29 07:06:00,
2013-09-29 03:15:00,47.4,46.6,30.16,SW,227,0.0,0.0,97,0.00,,,0.00,Wunderground v.1.15,2013-09-29 07:15:00,
2013-09-29 03:25:00,47.3,46.5,30.16,SW,227,0.0,0.0,97,0.00,,,0.00,Wunderground v.1.15,2013-09-29 07:25:00,
2013-09-29 03:35:00,47.4,46.6,30.16,SW,227,0.0,0.0,97,0.00,,,0.00,Wunderground v.1.15,2013-09-29 07:35:00,
2013-09-29 03:45:00,47.3,46.5,30.16,SW,227,0.0,0.0,97,0.00,,,0.00,Wunderground v.1.15,2013-09-29 07:45:00,
2013-09-29 03:55:00,47.3,46.5,30.16,SW,227,0.0,0.0,97,0.00,,,0.00,Wunderground v.1.15,2013-09-29 07:55:00,
2013-09-29 04:05:00,47.4,46.6,30.15,SW,227,0.0,0.0,97,0.00,,,0.00,Wunderground v.1.15,2013-09-29 08:05:00,
2013-09-29 04:15:00,47.1,46.3,30.16,SW,227,0.0,0.0,97,0.00,,,0.00,Wunderground v.1.15,2013-09-29 08:15:00,
2013-09-29 04:35:00,47.3,46.5,30.15,SW,227,0.0,0.0,97,0.00,,,0.00,Wunderground v.1.15,2013-09-29 08:35:00,
2013-09-29 04:55:00,47.1,46.3,30.15,SW,227,0.0,0.0,97,0.00,,,0.00,Wunderground v.1.15,2013-09-29 08:55:00,
2013-09-29 05:16:00,46.8,46.0,30.15,SW,227,0.0,0.0,97,0.00,,,0.00,Wunderground v.1.15,2013-09-29 09:16:00,
2013-09-29 05:25:00,46.7,45.9,30.15,SW,227,0.0,0.0,97,0.00,,,0.00,Wunderground v.1.15,2013-09-29 09:25:00,
2013-09-29 05:45:00,46.5,45.7,30.16,SW,227,0.0,0.0,97,0.00,,,0.00,Wunderground v.1.15,2013-09-29 09:45:00,
2013-09-29 05:55:00,46.4,45.6,30.16,SW,227,0.0,0.0,97,0.00,,,0.00,Wunderground v.1.15,2013-09-29 09:55:00,
2013-09-29 06:05:00,46.5,45.7,30.16,SW,227,0.0,0.0,97,0.00,,,0.00,Wunderground v.1.15,2013-09-29 10:05:00,
2013-09-29 06:15:00,46.7,45.9,30.16,SW,227,0.0,0.0,97,0.00,,,0.00,Wunderground v.1.15,2013-09-29 10:15:00,
2013-09-29 06:55:00,46.7,46.2,30.16,SW,227,0.0,0.0,98,0.00,,,0.00,Wunderground v.1.15,2013-09-29 10:55:00,
2013-09-29 07:05:00,46.8,46.3,30.15,SW,227,0.0,0.0,98,0.00,,,0.01,Wunderground v.1.15,2013-09-29 11:05:00,
2013-09-29 07:15:00,47.0,46.5,30.16,SW,227,0.0,1.0,98,0.00,,,0.01,Wunderground v.1.15,2013-09-29 11:15:00,
2013-09-29 07:25:00,47.3,46.8,30.16,SW,227,0.0,0.0,98,0.00,,,0.01,Wunderground v.1.15,2013-09-29 11:25:00,
2013-09-29 07:35:00,47.7,47.2,30.16,SW,227,0.0,0.0,98,0.00,,,0.01,Wunderground v.1.15,2013-09-29 11:35:00,
2013-09-29 07:45:00,48.6,48.1,30.16,SW,227,0.0,0.0,98,0.00,,,0.01,Wunderground v.1.15,2013-09-29 11:45:00,
2013-09-29 07:55:00,49.1,48.6,30.16,SW,227,0.0,0.0,98,0.00,,,0.01,Wunderground v.1.15,2013-09-29 11:55:00,
2013-09-29 08:05:00,49.4,48.9,30.16,SW,227,0.0,0.0,98,0.00,,,0.01,Wunderground v.1.15,2013-09-29 12:05:00,
2013-09-29 08:15:00,50.8,50.0,30.16,SSE,161,0.0,1.0,97,0.00,,,0.01,Wunderground v.1.15,2013-09-29 12:15:00,
2013-09-29 08:25:00,51.4,50.0,30.16,SSE,161,1.0,1.0,95,0.00,,,0.01,Wunderground v.1.15,2013-09-29 12:25:00,
2013-09-29 08:35:00,52.5,50.5,30.16,SSE,161,0.0,1.0,93,0.00,,,0.01,Wunderground v.1.15,2013-09-29 12:35:00,
2013-09-29 08:45:00,53.5,50.0,30.15,SSE,161,0.0,0.0,88,0.00,,,0.01,Wunderground v.1.15,2013-09-29 12:45:00,
2013-09-29 08:55:00,54.8,50.4,30.15,SSE,161,0.0,0.0,85,0.00,,,0.01,Wunderground v.1.15,2013-09-29 12:55:00,
2013-09-29 09:35:00,56.2,50.1,30.15,SSE,161,1.0,3.0,80,0.00,,,0.01,Wunderground v.1.15,2013-09-29 13:35:00,
2013-09-29 09:45:00,57.0,50.5,30.15,SSE,161,1.0,1.0,79,0.00,,,0.01,Wunderground v.1.15,2013-09-29 13:45:00,
2013-09-29 10:35:00,61.2,52.5,30.14,SE,135,3.0,4.0,73,0.00,,,0.01,Wunderground v.1.15,2013-09-29 14:35:00,
2013-09-29 10:45:00,61.5,53.1,30.13,SE,138,3.0,4.0,74,0.00,,,0.01,Wunderground v.1.15,2013-09-29 14:45:00,
2013-09-29 10:55:00,61.6,51.7,30.13,ESE,109,3.0,4.0,70,0.00,,,0.01,Wunderground v.1.15,2013-09-29 14:55:00,
2013-09-29 11:05:00,62.0,51.7,30.13,ENE,78,3.0,3.0,69,0.00,,,0.01,Wunderground v.1.15,2013-09-29 15:05:00,
2013-09-29 11:15:00,62.6,52.3,30.13,ESE,111,4.0,5.0,69,0.00,,,0.01,Wunderground v.1.15,2013-09-29 15:15:00,
2013-09-29 11:25:00,63.7,52.1,30.13,ESE,119,2.0,4.0,66,0.00,,,0.01,Wunderground v.1.15,2013-09-29 15:25:00,
2013-09-29 11:35:00,64.5,52.5,30.12,SSE,152,3.0,3.0,65,0.00,,,0.01,Wunderground v.1.15,2013-09-29 15:35:00,
2013-09-29 11:45:00,64.2,52.6,30.12,SSE,150,5.0,5.0,66,0.00,,,0.01,Wunderground v.1.15,2013-09-29 15:45:00,
2013-09-29 11:55:00,65.6,53.1,30.12,SSE,153,3.0,4.0,64,0.00,,,0.01,Wunderground v.1.15,2013-09-29 15:55:00,
2013-09-29 12:05:00,65.0,52.1,30.11,ESE,120,4.0,4.0,63,0.00,,,0.01,Wunderground v.1.15,2013-09-29 16:05:00,
2013-09-29 12:15:00,65.8,52.0,30.11,SSE,150,3.0,3.0,61,0.00,,,0.01,Wunderground v.1.15,2013-09-29 16:15:00,
2013-09-29 12:25:00,66.1,52.7,30.11,ESE,123,3.0,3.0,62,0.00,,,0.01,Wunderground v.1.15,2013-09-29 16:25:00,
2013-09-29 12:35:00,66.3,51.5,30.11,SE,130,4.0,7.0,59,0.00,,,0.01,Wunderground v.1.15,2013-09-29 16:35:00,
2013-09-29 13:25:00,67.1,51.4,30.10,ESE,106,3.0,3.0,57,0.00,,,0.01,Wunderground v.1.15,2013-09-29 17:25:00,
2013-09-29 13:35:00,68.3,51.0,30.09,SSE,161,2.0,2.0,54,0.00,,,0.01,Wunderground v.1.15,2013-09-29 17:35:00,
2013-09-29 13:45:00,67.9,50.1,30.09,SE,144,3.0,4.0,53,0.00,,,0.01,Wunderground v.1.15,2013-09-29 17:45:00,
2013-09-29 13:56:00,67.1,49.4,30.09,ENE,71,3.0,4.0,53,0.00,,,0.01,Wunderground v.1.15,2013-09-29 17:56:00,
2013-09-29 14:16:00,67.6,48.8,30.08,South,179,3.0,3.0,51,0.00,,,0.01,Wunderground v.1.15,2013-09-29 18:16:00,
2013-09-29 14:25:00,68.3,49.5,30.08,SE,140,2.0,3.0,51,0.00,,,0.01,Wunderground v.1.15,2013-09-29 18:25:00,
2013-09-29 14:35:00,68.8,49.4,30.08,SE,136,2.0,3.0,50,0.00,,,0.01,Wunderground v.1.15,2013-09-29 18:35:00,
2013-09-29 14:46:00,67.9,49.6,30.08,SSE,163,3.0,3.0,52,0.00,,,0.01,Wunderground v.1.15,2013-09-29 18:46:00,
2013-09-29 14:55:00,67.4,50.2,30.08,South,169,3.0,3.0,54,0.00,,,0.01,Wunderground v.1.15,2013-09-29 18:55:00,
2013-09-29 15:06:00,66.4,49.2,30.07,ESE,117,5.0,6.0,54,0.00,,,0.01,Wunderground v.1.15,2013-09-29 19:06:00,
2013-09-29 15:25:00,68.8,48.9,30.07,SSE,167,2.0,2.0,49,0.00,,,0.01,Wunderground v.1.15,2013-09-29 19:25:00,
2013-09-29 15:35:00,67.1,48.4,30.06,South,185,2.0,5.0,51,0.00,,,0.01,Wunderground v.1.15,2013-09-29 19:35:00,
2013-09-29 16:15:00,67.1,48.4,30.05,SSE,148,1.0,1.0,51,0.00,,,0.01,Wunderground v.1.15,2013-09-29 20:15:00,
2013-09-29 16:25:00,67.4,47.6,30.05,SSE,153,2.0,3.0,49,0.00,,,0.01,Wunderground v.1.15,2013-09-29 20:25:00,
2013-09-29 16:35:00,68.1,48.8,30.04,SSE,161,0.0,0.0,50,0.00,,,0.01,Wunderground v.1.15,2013-09-29 20:35:00,
2013-09-29 16:45:00,67.6,48.8,30.04,SE,142,3.0,3.0,51,0.00,,,0.01,Wunderground v.1.15,2013-09-29 20:45:00,
2013-09-29 17:06:00,67.6,48.3,30.04,SSE,156,2.0,2.0,50,0.00,,,0.01,Wunderground v.1.15,2013-09-29 21:06:00,
2013-09-29 17:16:00,66.9,48.2,30.03,SSE,154,1.0,1.0,51,0.00,,,0.01,Wunderground v.1.15,2013-09-29 21:16:00,
2013-09-29 17:25:00,66.4,48.2,30.03,SSE,152,1.0,1.0,52,0.00,,,0.01,Wunderground v.1.15,2013-09-29 21:25:00,
2013-09-29 17:35:00,65.6,48.5,30.04,SSE,168,2.0,2.0,54,0.00,,,0.01,Wunderground v.1.15,2013-09-29 21:35:00,
2013-09-29 18:05:00,63.2,49.1,30.04,SSE,159,2.0,2.0,60,0.00,,,0.01,Wunderground v.1.15,2013-09-29 22:05:00,
2013-09-29 18:46:00,60.9,49.5,30.05,SSE,161,3.0,3.0,66,0.00,,,0.01,Wunderground v.1.15,2013-09-29 22:46:00,
2013-09-29 18:56:00,60.2,49.6,30.05,SSE,154,2.0,4.0,68,0.00,,,0.01,Wunderground v.1.15,2013-09-29 22:56:00,
2013-09-29 19:15:00,58.1,49.9,30.05,SE,136,0.0,0.0,74,0.00,,,0.01,Wunderground v.1.15,2013-09-29 23:15:00,
2013-09-29 19:25:00,57.0,49.9,30.05,SE,136,0.0,0.0,77,0.00,,,0.01,Wunderground v.1.15,2013-09-29 23:25:00,
2013-09-29 19:35:00,56.6,49.5,30.05,SE,136,0.0,0.0,77,0.00,,,0.01,Wunderground v.1.15,2013-09-29 23:35:00,
2013-09-29 19:45:00,55.9,49.5,30.06,SE,136,0.0,0.0,79,0.00,,,0.01,Wunderground v.1.15,2013-09-29 23:45:00,
2013-09-29 19:55:00,55.4,49.3,30.06,SE,136,0.0,0.0,80,0.00,,,0.01,Wunderground v.1.15,2013-09-29 23:55:00,
2013-09-29 20:06:00,55.0,49.6,30.06,SE,136,0.0,0.0,82,0.00,,,0.01,Wunderground v.1.15,2013-09-30 00:06:00,
2013-09-29 20:15:00,54.2,49.5,30.06,SE,136,0.0,0.0,84,0.00,,,0.01,Wunderground v.1.15,2013-09-30 00:15:00,
2013-09-29 20:25:00,53.8,49.4,30.06,SE,136,0.0,0.0,85,0.00,,,0.01,Wunderground v.1.15,2013-09-30 00:25:00,
2013-09-29 20:35:00,53.2,49.1,30.06,SE,136,0.0,0.0,86,0.00,,,0.01,Wunderground v.1.15,2013-09-30 00:35:00,
2013-09-29 20:45:00,52.8,49.0,30.06,SE,136,0.0,0.0,87,0.00,,,0.01,Wunderground v.1.15,2013-09-30 00:45:00,
2013-09-29 20:55:00,52.3,48.9,30.06,SE,138,1.0,5.0,88,0.00,,,0.01,Wunderground v.1.15,2013-09-30 00:55:00,
2013-09-29 21:05:00,52.3,48.5,30.06,SE,138,0.0,0.0,87,0.00,,,0.01,Wunderground v.1.15,2013-09-30 01:05:00,
2013-09-29 21:26:00,52.3,48.2,30.06,East,96,1.0,1.0,86,0.00,,,0.01,Wunderground v.1.15,2013-09-30 01:26:00,
2013-09-29 21:35:00,52.0,48.3,30.06,East,96,0.0,0.0,87,0.00,,,0.01,Wunderground v.1.15,2013-09-30 01:35:00,
2013-09-29 21:46:00,51.4,48.0,30.06,East,96,0.0,0.0,88,0.00,,,0.01,Wunderground v.1.15,2013-09-30 01:46:00,
2013-09-29 21:55:00,51.0,47.6,30.06,East,96,0.0,0.0,88,0.00,,,0.01,Wunderground v.1.15,2013-09-30 01:55:00,
2013-09-29 22:05:00,51.0,47.6,30.06,East,96,0.0,0.0,88,0.00,,,0.01,Wunderground v.1.15,2013-09-30 02:05:00,
2013-09-29 22:15:00,51.1,47.7,30.06,East,96,0.0,0.0,88,0.00,,,0.01,Wunderground v.1.15,2013-09-30 02:15:00,
2013-09-29 22:25:00,50.8,47.4,30.06,East,96,0.0,0.0,88,0.00,,,0.01,Wunderground v.1.15,2013-09-30 02:25:00,
2013-09-29 22:36:00,49.9,47.1,30.06,East,96,0.0,0.0,90,0.00,,,0.01,Wunderground v.1.15,2013-09-30 02:36:00,
2013-09-29 22:46:00,48.9,46.7,30.06,West,267,1.0,3.0,92,0.00,,,0.01,Wunderground v.1.15,2013-09-30 02:46:00,
2013-09-29 22:56:00,48.5,46.6,30.06,West,267,2.0,3.0,93,0.00,,,0.01,Wunderground v.1.15,2013-09-30 02:56:00,
2013-09-29 23:05:00,48.0,46.1,30.06,West,267,0.0,0.0,93,0.00,,,0.01,Wunderground v.1.15,2013-09-30 03:05:00,
2013-09-29 23:16:00,47.7,46.1,30.05,West,267,1.0,2.0,94,0.00,,,0.01,Wunderground v.1.15,2013-09-30 03:16:00,
2013-09-29 23:25:00,47.7,46.3,30.05,West,267,0.0,2.0,95,0.00,,,0.01,Wunderground v.1.15,2013-09-30 03:25:00,
2013-09-29 23:45:00,47.3,45.9,30.04,West,267,0.0,0.0,95,0.00,,,0.01,Wunderground v.1.15,2013-09-30 03:45:00,
2013-09-29 23:55:00,47.3,46.2,30.04,West,267,0.0,0.0,96,0.00,,,0.01,Wunderground v.1.15,2013-09-30 03:55:00,